AirNav   TITAN Aviation Fuels
 
 1102 users online  

KTTF Custer Airport
Monroe, Michigan, USA

GOING TO MONROE?


FAA INFORMATION EFFECTIVE 11 AUGUST 2022

Location

FAA Identifier: TTF
Lat/Long: 41-56-23.6000N 083-26-04.8000W
41-56.393333N 083-26.080000W
41.9398889,-83.4346667
(estimated)
Elevation: 615.6 ft. / 187.6 m (surveyed)
Variation: 05W (1980)
From city: 2 miles NW of MONROE, MI
Time zone: UTC -4 (UTC -5 during Standard Time)
Zip code: 48162

Airport Operations

Airport use: Open to the public
Activation date: 11/1946
Control tower: no
ARTCC: CLEVELAND CENTER
FSS: LANSING FLIGHT SERVICE STATION
NOTAMs facility: TTF (NOTAM-D service available)
Attendance: 0800-1700
UNATNDD MAJOR HOLS CTC AMGR.
Wind indicator: lighted
Segmented circle: no
Lights: ACTVT VASI RWY 03; PAPI RWY 21; REIL RWY 21; MIRL RWY 03/21 - CTAF.
Beacon: white-green (lighted land airport)
Operates sunset to sunrise.

Airport Communications

CTAF/UNICOM: 122.7
WX AWOS-3: 119.075 (734-384-0259)
DETROIT APPROACH: 134.3
DETROIT DEPARTURE: 134.3
WX AWOS-3 at ONZ (15 nm NE): 119.675 (734-692-9686)
WX AWOS-3 at DUH (16 nm SW): 119.175 (734-856-1563)
WX ASOS at DTW (17 nm N): PHONE 734-955-5015
WX ASOS at YIP (19 nm N): PHONE 734-961-6843

Nearby radio navigation aids

VOR radial/distance  VOR name  Freq  Var
CRLr174/6.6CARLETON VOR/DME115.7003W
DXOr196/16.7DETROIT VOR/DME113.4006W
SVMr169/29.0SALEM VORTAC114.3003W

 
NDB name  Hdg/Dist  Freq  Var  ID
GROSSE ILE239/15.941907WRYS .-. -.-- ...
TECUMSEH112/20.923906WTCU - -.-. ..-
ADRIAN088/29.027806WADG .- -.. --.
PORT CLINTON322/35.842307WPCW .--. -.-. .--

Airport Services

Fuel available: 100LL JET-A+
100LL:100LL SELF SVC; JET A+ FULL SVC.
Parking: hangars and tiedowns
Airframe service: MAJOR
Powerplant service: MAJOR
Bottled oxygen: NONE
Bulk oxygen: NONE

Runway Information

Runway 3/21

Dimensions: 4997 x 100 ft. / 1523 x 30 m
Surface: asphalt/grooved, in good condition
Weight bearing capacity: 
Single wheel: 60.0
Double wheel: 80.0
Runway edge lights: medium intensity
RUNWAY 3  RUNWAY 21
Latitude: 41-56.013992N41-56.774095N
Longitude: 083-26.290813W083-25.869247W
Elevation: 611.1 ft.615.4 ft.
Traffic pattern: leftleft
Runway heading: 027 magnetic, 022 true207 magnetic, 202 true
Markings: nonprecision, in good conditionnonprecision, in good condition
Visual slope indicator: 2-box VASI on left (4.00 degrees glide path)2-light PAPI on left (3.50 degrees glide path)
Runway end identifier lights: noyes
Touchdown point: yes, no lightsyes, no lights

Airport Ownership and Management from official FAA records

Ownership: Publicly-owned
Owner: CITY OF MONROE
120 E 1ST ST
MONROE, MI 48161-2283
Phone 734-384-9125
Manager: DANIEL DIESING
2800 N CUSTER RD
MONROE, MI 48162-3537
Phone 734-384-9616
CELL 734-777-9169.

Airport Operational Statistics

Aircraft based on the field: 30
Single engine airplanes: 27
Multi engine airplanes: 3
    
Aircraft operations: avg 33/day *
50% transient general aviation
50% local general aviation
* for 12-month period ending 31 December 2021

Additional Remarks

A52-03 8 FT SEASONAL CROPS, 200 FT DIST.
BIRDS & DEER INVOF RWY.
NOISE SENSITIVE AREAS. DEP ACFT MAX RATE OF CLIMB TO TPA.
FOR CD CTC DETROIT APCH AT 734-955-1404.

Instrument Procedures

NOTE: All procedures below are presented as PDF files. If you need a reader for these files, you should download the free Adobe Reader.

NOT FOR NAVIGATION. Please procure official charts for flight.
FAA instrument procedures published for use from 11 August 2022 at 0901Z to 08 September 2022 at 0900z.

 
STARs - Standard Terminal Arrivals
FOREY TWO (RNAV)   download (160KB)
GIGGY TWO (RNAV)   download (140KB)
PETTE TWO (RNAV)   download (210KB)
RRALF THREE (RNAV)   download (162KB)
 
IAPs - Instrument Approach Procedures
RNAV (GPS) RWY 03   download (200KB)
RNAV (GPS) RWY 21   download (239KB)
NOTE: Special Alternate Minimums apply   download (53KB)
 
Departure Procedures
BARII TWO (RNAV)   download (150KB)
CCOBB TWO (RNAV)   download (187KB)
CLVIN TWO (RNAV)   download (164KB)
HHOWE THREE (RNAV)   download (173KB)
KAYLN TWO (RNAV)   download (152KB)
KZLOV ONE (RNAV) **NEW**   download (154KB)
LIDDS TWO (RNAV)   download (165KB)
MIGGY TWO (RNAV)   download (183KB)
PAVYL TWO (RNAV)   download (162KB)
SNDRS TWO (RNAV)   download (197KB)
TRMML THREE (RNAV)   download (154KB)
ZETTR THREE (RNAV)   download (196KB)
NOTE: Special Take-Off Minimums/Departure Procedures apply   download (208KB)

Other nearby airports with instrument procedures:

KONZ - Grosse Ile Municipal Airport (15 nm NE)
KDUH - Toledo Suburban Airport (16 nm SW)
KDTW - Detroit Metro Wayne County Airport (17 nm N)
KYIP - Willow Run Airport (19 nm N)
KARB - Ann Arbor Municipal Airport (22 nm NW)
 
Loc | Ops | Rwys | IFR | FBO | Links
Com | Nav | Svcs | Stats | Notes
Area around KTTF (Custer Airport)
 
Road maps at: MapQuest Bing Google
 
Aerial photo
WARNING: Photo may not be current or correct
Aerial photo of KTTF (Custer Airport)
Photo by Robin Sprys
Photo taken 22-Jun-2010

Do you have a better or more recent aerial photo of Custer Airport that you would like to share? If so, please send us your photo.

 
Sectional chart

 
Airport distance calculator
Flying to Custer Airport? Find the distance to fly.

From to KTTF

Sunrise and sunset
Times for 19-Aug-2022
 Local
(UTC-4)
 Zulu
(UTC)
Morning civil twilight06:1710:17
Sunrise06:4710:47
Sunset20:2800:28
Evening civil twilight20:5800:58

Current date and time
Zulu (UTC)  20-Aug-2022 00:38:46
Local (UTC-4)  19-Aug-2022 20:38:46
 
METAR
KTTF 200015Z AUTO 00000KT 10SM CLR 24/18 A3000 RMK AO2 T02420183
KDUH 
16nm SW 
200015Z AUTO 00000KT 10SM CLR 24/18 A2999 RMK AO2 T02360176
KONZ 
16nm NE 
200015Z AUTO 14003KT 10SM BKN110 25/20 A3000 RMK AO2 T02450198
KYIP 
18nm N 
192353Z 15006KT 10SM CLR 27/17 A3000 RMK AO2 SLP154 T02670172 10311 20267 55000
KDTW 
18nm N 
192353Z 16005KT 10SM SCT060 SCT250 26/16 A3000 RMK AO2 SLP155 T02610161 10306 20261 54000 $
TAF
KYIP 
18nm N 
191720Z 1918/2018 20007KT P6SM SCT050 TEMPO 1918/1922 BKN060 FM192300 16004KT P6SM FEW050 SCT100 FM201400 18008KT P6SM SCT050 BKN150
KDTW 
18nm N 
191720Z 1918/2024 20007KT P6SM SCT050 TEMPO 1918/1922 BKN060 FM192300 16004KT P6SM FEW050 SCT100 FM201400 18008KT P6SM SCT050 BKN150 FM201800 18008KT P6SM BKN100 PROB30 2018/2024 5SM -TSRA BKN050CB
NOTAMs
Click for the latest NOTAMs
NOTAMs are issued by the DoD/FAA and will open in a separate window not controlled by AirNav.

 

 
 

FBO, Fuel Providers, and Aircraft Ground Support

  
 Business Name 
 
 Contact 
 
 Services / Description 
 
Fuel Prices
 
Comments
  
Monroe Aviation School of Flight 734-384-9616
no information available

If you are affiliated with Monroe Aviation School of Flight and would like to show here your services, contact info, web link, logo, and more, click here
100LL Jet A
FS $7.10 $5.50 
 Updated 17-Aug-2022
 
   1 read write
FS=Full service
Update Fuel Prices
 

Would you like to see your business listed on this page?

 If your business provides an interesting product or service to pilots, flight crews, aircraft, or users of the Custer Airport, you should consider listing it here.  To start the listing process, click on the button below
 
Add a business
 

Other Pages about Custer Airport

www.monroemi.gov/...
Page from the Michigan Airport Directory (PDF)
 
Update a link
 
Copyright © AirNav, LLC. All rights reserved. Privacy Policy  Contact